Time;durP1;ratioP1;P1;durP2;ratioP2;P2;SDS_P1;SDS_P2;PMS_P1;PMS_P2;Temp;Humidity;BMP_temperature;BMP_pressure;BME280_temperature;BME280_humidity;BME280_pressure;Samples;Min_cycle;Max_cycle;Signal;HPM_P1;HPM_P2
2022/12/10 00:01:05;;;;;;;41.40;13.95;;;;;;;;;;5026122;28;20021;-78
2022/12/10 00:03:30;;;;;;;24.77;8.75;;;;;;;;;;5024414;28;20146;-78
2022/12/10 00:06:00;;;;;;;31.90;11.85;;;;;;;;;;5025217;28;20734;-78
2022/12/10 00:08:25;;;;;;;29.65;10.48;;;;;;;;;;5025045;28;20029;-78
2022/12/10 00:10:50;;;;;;;24.85;8.98;;;;;;;;;;5021563;28;20064;-78
2022/12/10 00:13:15;;;;;;;31.92;11.82;;;;;;;;;;5005803;28;20129;-78
2022/12/10 00:15:41;;;;;;;26.95;11.48;;;;;;;;;;5004478;28;20051;-78
2022/12/10 00:18:06;;;;;;;31.17;13.25;;;;;;;;;;5006752;28;20034;-78
2022/12/10 00:20:31;;;;;;;14.75;4.57;;;;;;;;;;5022189;28;20407;-78
2022/12/10 00:22:56;;;;;;;32.90;11.38;;;;;;;;;;5018031;28;20112;-78
2022/12/10 00:25:22;;;;;;;35.20;14.18;;;;;;;;;;5026261;28;20157;-78
2022/12/10 00:27:47;;;;;;;34.90;11.77;;;;;;;;;;5024712;28;20415;-78
2022/12/10 00:30:12;;;;;;;34.65;12.10;;;;;;;;;;5026489;28;20064;-78
2022/12/10 00:32:38;;;;;;;31.80;11.50;;;;;;;;;;5024908;28;20029;-78
2022/12/10 00:35:03;;;;;;;34.10;11.95;;;;;;;;;;5026124;28;20029;-78
2022/12/10 00:37:29;;;;;;;38.90;11.63;;;;;;;;;;5025020;28;20029;-78
2022/12/10 00:39:54;;;;;;;27.15;10.25;;;;;;;;;;5026843;28;20406;-78
2022/12/10 00:42:20;;;;;;;35.70;12.73;;;;;;;;;;5024897;28;20037;-78
2022/12/10 00:44:45;;;;;;;36.88;11.57;;;;;;;;;;5025965;28;20042;-79
2022/12/10 00:47:10;;;;;;;25.20;9.77;;;;;;;;;;5025849;28;20515;-78
2022/12/10 00:49:36;;;;;;;36.50;12.77;;;;;;;;;;5025929;28;20076;-78
2022/12/10 00:52:01;;;;;;;26.65;11.70;;;;;;;;;;5026187;28;20017;-78
2022/12/10 00:54:26;;;;;;;40.30;13.82;;;;;;;;;;5026254;28;20125;-78
2022/12/10 00:56:52;;;;;;;26.55;11.30;;;;;;;;;;5041208;28;20064;-78
2022/12/10 00:59:17;;;;;;;22.23;9.02;;;;;;;;;;5026283;28;20038;-78
2022/12/10 01:01:43;;;;;;;29.35;11.77;;;;;;;;;;5026331;28;20510;-78
2022/12/10 01:04:12;;;;;;;31.30;9.60;;;;;;;;;;5025176;28;20018;-78
2022/12/10 01:06:45;;;;;;;32.08;10.93;;;;;;;;;;5023775;28;20113;-78
2022/12/10 01:09:13;;;;;;;33.15;11.48;;;;;;;;;;5021221;28;20025;-78
2022/12/10 01:11:40;;;;;;;31.88;9.82;;;;;;;;;;5023316;28;20044;-78
2022/12/10 01:14:08;;;;;;;27.73;9.80;;;;;;;;;;5029187;28;20037;-78
2022/12/10 01:16:33;;;;;;;28.13;11.25;;;;;;;;;;5014404;28;20468;-78
2022/12/10 01:18:59;;;;;;;29.83;11.63;;;;;;;;;;5019466;28;20542;-78
2022/12/10 01:21:26;;;;;;;32.13;11.18;;;;;;;;;;5021438;28;20041;-78
2022/12/10 01:23:52;;;;;;;31.70;11.20;;;;;;;;;;5022013;28;20050;-78
2022/12/10 01:26:21;;;;;;;32.75;11.82;;;;;;;;;;5025678;28;20071;-78
2022/12/10 01:28:47;;;;;;;27.90;10.27;;;;;;;;;;5027746;28;20121;-78
2022/12/10 01:31:16;;;;;;;28.83;10.77;;;;;;;;;;5028677;28;20032;-78
2022/12/10 01:33:42;;;;;;;35.20;11.80;;;;;;;;;;5028434;28;20084;-78
2022/12/10 01:36:11;;;;;;;25.50;8.82;;;;;;;;;;5030217;28;20037;-78
2022/12/10 01:38:37;;;;;;;14.95;8.48;;;;;;;;;;5016621;28;20048;-78
2022/12/10 01:41:03;;;;;;;6.82;3.83;;;;;;;;;;5026877;28;20033;-78
2022/12/10 01:43:49;;;;;;;10.60;6.80;;;;;;;;;;5027166;28;20045;-78
2022/12/10 01:46:14;;;;;;;14.43;6.88;;;;;;;;;;5030606;28;20025;-78
2022/12/10 01:48:40;;;;;;;31.42;12.13;;;;;;;;;;5026578;28;20057;-78
2022/12/10 01:51:06;;;;;;;37.75;12.80;;;;;;;;;;5022849;28;20044;-78
2022/12/10 01:53:32;;;;;;;18.85;8.57;;;;;;;;;;5025355;28;20037;-78
2022/12/10 01:55:57;;;;;;;33.67;11.95;;;;;;;;;;5028902;28;20116;-78
2022/12/10 01:58:22;;;;;;;30.65;11.15;;;;;;;;;;5022124;28;20052;-78
2022/12/10 02:01:05;;;;;;;34.47;10.93;;;;;;;;;;5022960;28;20056;-78
2022/12/10 02:04:12;;;;;;;33.80;12.40;;;;;;;;;;5021353;28;20040;-78
2022/12/10 02:06:57;;;;;;;31.27;10.35;;;;;;;;;;5026211;28;20786;-78
2022/12/10 02:09:44;;;;;;;28.08;10.30;;;;;;;;;;5024005;28;20034;-78
2022/12/10 02:12:24;;;;;;;26.30;9.25;;;;;;;;;;5022723;28;20091;-78
2022/12/10 02:15:06;;;;;;;14.10;5.90;;;;;;;;;;5014893;28;20080;-78
2022/12/10 02:17:37;;;;;;;28.67;12.23;;;;;;;;;;5024838;28;20112;-78
2022/12/10 02:20:18;;;;;;;22.65;8.75;;;;;;;;;;5022565;28;20079;-78
2022/12/10 02:23:01;;;;;;;20.38;8.50;;;;;;;;;;5026432;28;20021;-78
2022/12/10 02:25:41;;;;;;;26.25;10.15;;;;;;;;;;5024740;28;20029;-78
2022/12/10 02:28:32;;;;;;;30.70;12.70;;;;;;;;;;5026525;28;20156;-78
2022/12/10 02:30:59;;;;;;;41.60;14.25;;;;;;;;;;5023677;28;20087;-78
2022/12/10 02:33:27;;;;;;;48.92;14.77;;;;;;;;;;5026508;28;20140;-78
2022/12/10 02:35:54;;;;;;;73.28;14.75;;;;;;;;;;5026121;28;20046;-78
2022/12/10 02:38:26;;;;;;;30.42;11.40;;;;;;;;;;5037461;28;20068;-78
2022/12/10 02:40:57;;;;;;;35.80;11.20;;;;;;;;;;5041124;28;20033;-78
2022/12/10 02:43:24;;;;;;;31.05;11.50;;;;;;;;;;5025414;28;20029;-77
2022/12/10 02:45:50;;;;;;;75.40;13.32;;;;;;;;;;5022203;28;20061;-77
2022/12/10 02:48:17;;;;;;;41.33;8.70;;;;;;;;;;5022827;28;20095;-79
2022/12/10 02:50:43;;;;;;;39.75;12.27;;;;;;;;;;5022217;28;20465;-78
2022/12/10 02:53:08;;;;;;;27.05;9.52;;;;;;;;;;5037686;28;20510;-78
2022/12/10 02:55:47;;;;;;;30.38;11.57;;;;;;;;;;5033022;28;20053;-78
2022/12/10 02:58:18;;;;;;;32.20;12.15;;;;;;;;;;5019602;28;20658;-78
2022/12/10 03:01:02;;;;;;;28.90;11.57;;;;;;;;;;5037453;28;20052;-78
2022/12/10 03:03:56;;;;;;;;;;;;;;;;;;5021219;28;20514;-78
2022/12/10 03:06:36;;;;;;;32.85;10.10;;;;;;;;;;5017267;28;19959;-78
2022/12/10 03:09:05;;;;;;;38.00;10.30;;;;;;;;;;5025029;28;20045;-79
2022/12/10 03:11:31;;;;;;;20.73;8.57;;;;;;;;;;5023200;28;20542;-78
2022/12/10 03:14:04;;;;;;;86.95;12.52;;;;;;;;;;5022594;28;20096;-78
2022/12/10 03:16:36;;;;;;;24.38;7.82;;;;;;;;;;5021406;28;20037;-78
2022/12/10 03:19:05;;;;;;;29.80;9.23;;;;;;;;;;5025813;28;20096;-78
2022/12/10 03:21:34;;;;;;;36.67;11.18;;;;;;;;;;5038032;28;20103;-78
2022/12/10 03:24:00;;;;;;;28.13;11.52;;;;;;;;;;5026344;28;20473;-78
2022/12/10 03:26:27;;;;;;;42.80;11.75;;;;;;;;;;5025987;28;20068;-79
2022/12/10 03:29:03;;;;;;;55.55;12.65;;;;;;;;;;5026045;28;20108;-78
2022/12/10 03:31:30;;;;;;;41.40;9.73;;;;;;;;;;5020330;28;20021;-78
2022/12/10 03:33:56;;;;;;;34.90;12.48;;;;;;;;;;5024899;28;20063;-78
2022/12/10 03:36:22;;;;;;;52.88;13.02;;;;;;;;;;5024453;28;20029;-78
2022/12/10 03:38:48;;;;;;;74.65;13.20;;;;;;;;;;5020744;28;20034;-78
2022/12/10 03:41:13;;;;;;;54.33;13.32;;;;;;;;;;5023944;28;20044;-78
2022/12/10 03:43:51;;;;;;;41.20;11.43;;;;;;;;;;5024621;28;20028;-78
2022/12/10 03:46:16;;;;;;;35.28;10.65;;;;;;;;;;5023864;28;20414;-79
2022/12/10 03:50:38;;;;;;;42.67;11.73;;;;;;;;;;5059990;27;20391;-80
2022/12/10 03:53:04;;;;;;;71.75;14.50;;;;;;;;;;5028360;28;20102;-80
2022/12/10 03:55:29;;;;;;;32.97;12.57;;;;;;;;;;5028886;28;20513;-79
2022/12/10 03:57:54;;;;;;;39.80;13.93;;;;;;;;;;5017327;28;20456;-80
2022/12/10 04:00:20;;;;;;;69.35;11.63;;;;;;;;;;5028432;28;20029;-80
2022/12/10 04:02:45;;;;;;;83.68;11.95;;;;;;;;;;5037432;28;20037;-80
2022/12/10 04:05:10;;;;;;;41.92;11.40;;;;;;;;;;5018419;28;20046;-80
2022/12/10 04:07:36;;;;;;;48.95;10.68;;;;;;;;;;5022236;28;20021;-80
2022/12/10 04:10:02;;;;;;;60.47;14.57;;;;;;;;;;5032205;28;20018;-80
2022/12/10 04:12:28;;;;;;;72.88;16.10;;;;;;;;;;5019375;28;20471;-80
2022/12/10 04:17:37;;;;;;;44.65;10.25;;;;;;;;;;5044769;28;20090;-80
2022/12/10 04:20:03;;;;;;;75.63;13.80;;;;;;;;;;5058626;28;20021;-79
2022/12/10 04:27:57;;;;;;;39.58;11.32;;;;;;;;;;5045589;28;20123;-80
2022/12/10 04:30:22;;;;;;;58.67;13.35;;;;;;;;;;5042398;28;20112;-80
2022/12/10 04:32:47;;;;;;;100.28;12.90;;;;;;;;;;5030879;28;20478;-80
2022/12/10 04:35:13;;;;;;;34.70;12.50;;;;;;;;;;5040667;28;20017;-80
2022/12/10 04:37:38;;;;;;;98.32;13.10;;;;;;;;;;5042650;28;20063;-80
2022/12/10 04:40:05;;;;;;;57.28;12.02;;;;;;;;;;5041099;28;20367;-80
2022/12/10 04:42:30;;;;;;;70.80;10.70;;;;;;;;;;5056159;28;20029;-80
2022/12/10 04:44:55;;;;;;;63.28;12.73;;;;;;;;;;5030251;28;20030;-80
2022/12/10 04:47:21;;;;;;;43.40;9.15;;;;;;;;;;5044276;28;20421;-80
2022/12/10 04:49:46;;;;;;;60.38;11.75;;;;;;;;;;5041871;28;20111;-80
2022/12/10 04:52:14;;;;;;;49.30;11.25;;;;;;;;;;5053205;28;20018;-80
2022/12/10 04:54:40;;;;;;;43.47;9.73;;;;;;;;;;5053840;28;20036;-80
2022/12/10 04:57:06;;;;;;;88.15;12.63;;;;;;;;;;5053873;28;20039;-80
2022/12/10 04:59:32;;;;;;;42.90;13.02;;;;;;;;;;5061321;28;20171;-81
2022/12/10 05:01:57;;;;;;;54.08;13.32;;;;;;;;;;5029005;28;20533;-80
2022/12/10 05:04:23;;;;;;;43.22;11.27;;;;;;;;;;5022967;28;20025;-80
2022/12/10 05:06:48;;;;;;;47.83;10.85;;;;;;;;;;5024201;28;20073;-80
2022/12/10 05:09:14;;;;;;;74.38;14.75;;;;;;;;;;5035467;28;20033;-80
2022/12/10 05:11:40;;;;;;;82.03;13.23;;;;;;;;;;5021507;28;20510;-80
2022/12/10 05:14:06;;;;;;;49.10;12.32;;;;;;;;;;5035689;28;20521;-80
2022/12/10 05:16:33;;;;;;;40.10;10.90;;;;;;;;;;5060142;28;20456;-80
2022/12/10 05:18:59;;;;;;;51.65;11.02;;;;;;;;;;5024450;28;20025;-80
2022/12/10 05:23:27;;;;;;;75.20;9.07;;;;;;;;;;5030291;28;20029;-80
2022/12/10 05:24:16;;;;;;;60.95;13.02;;;;;;;;;;5033807;28;20037;-80
2022/12/10 05:26:42;;;;;;;40.22;11.43;;;;;;;;;;5022571;28;20040;-80
2022/12/10 05:29:08;;;;;;;123.35;13.38;;;;;;;;;;5023439;28;20037;-80
2022/12/10 05:31:33;;;;;;;18.88;7.25;;;;;;;;;;5019283;28;20116;-80
2022/12/10 05:33:59;;;;;;;61.05;11.48;;;;;;;;;;5038888;28;20013;-80
2022/12/10 05:36:28;;;;;;;28.58;7.85;;;;;;;;;;5042828;28;20022;-80
2022/12/10 05:38:55;;;;;;;68.97;9.40;;;;;;;;;;5031812;28;20156;-80
2022/12/10 05:41:24;;;;;;;55.97;9.65;;;;;;;;;;5048489;28;20078;-80
2022/12/10 05:43:49;;;;;;;42.80;12.27;;;;;;;;;;5026046;28;20064;-80
2022/12/10 05:46:18;;;;;;;65.25;11.85;;;;;;;;;;5032889;28;20052;-80
2022/12/10 05:48:44;;;;;;;33.95;9.50;;;;;;;;;;5030948;28;20068;-80
2022/12/10 05:51:12;;;;;;;115.60;13.30;;;;;;;;;;5028458;28;20442;-80
2022/12/10 05:53:38;;;;;;;39.30;10.82;;;;;;;;;;5040306;28;20033;-79
2022/12/10 05:56:07;;;;;;;79.38;11.32;;;;;;;;;;5056469;28;20026;-80
2022/12/10 05:58:33;;;;;;;33.75;6.10;;;;;;;;;;5041551;28;20021;-80
2022/12/10 06:00:59;;;;;;;63.55;10.63;;;;;;;;;;5034419;28;20021;-80
2022/12/10 06:03:27;;;;;;;42.45;11.38;;;;;;;;;;5022934;28;20029;-79
2022/12/10 06:05:53;;;;;;;34.72;11.80;;;;;;;;;;5034431;28;20025;-80
2022/12/10 06:08:18;;;;;;;87.70;12.68;;;;;;;;;;5033090;28;20033;-80
2022/12/10 06:10:44;;;;;;;96.78;14.10;;;;;;;;;;5035158;28;20025;-80
2022/12/10 06:13:09;;;;;;;52.42;12.20;;;;;;;;;;5026813;28;20021;-80
2022/12/10 06:15:39;;;;;;;58.22;11.45;;;;;;;;;;5029503;28;20084;-80
2022/12/10 06:18:04;;;;;;;17.38;7.35;;;;;;;;;;5041341;28;20082;-80
2022/12/10 06:20:30;;;;;;;28.77;10.23;;;;;;;;;;5029045;28;20132;-80
2022/12/10 06:22:55;;;;;;;44.08;10.40;;;;;;;;;;5028125;28;20112;-80
2022/12/10 06:25:20;;;;;;;34.17;11.23;;;;;;;;;;5032545;28;20036;-80
2022/12/10 06:27:46;;;;;;;33.78;8.27;;;;;;;;;;5036493;28;20124;-80
2022/12/10 06:30:11;;;;;;;59.20;10.07;;;;;;;;;;5030902;28;20645;-79
2022/12/10 06:32:37;;;;;;;81.82;11.25;;;;;;;;;;5048590;28;20037;-80
2022/12/10 06:35:03;;;;;;;43.13;11.95;;;;;;;;;;5020661;28;20122;-80
2022/12/10 06:37:29;;;;;;;47.78;11.70;;;;;;;;;;5019859;28;20094;-80
2022/12/10 06:39:54;;;;;;;42.25;10.50;;;;;;;;;;5039339;28;20097;-80
2022/12/10 06:42:20;;;;;;;99.97;12.80;;;;;;;;;;5022741;28;20061;-80
2022/12/10 06:44:46;;;;;;;48.20;11.48;;;;;;;;;;5028158;28;20037;-80
2022/12/10 06:47:12;;;;;;;84.47;11.82;;;;;;;;;;5039132;28;20525;-80
2022/12/10 06:49:38;;;;;;;58.88;10.80;;;;;;;;;;5030907;28;20049;-80
2022/12/10 06:52:04;;;;;;;47.70;11.50;;;;;;;;;;5028043;28;20038;-80
2022/12/10 06:54:30;;;;;;;98.75;14.95;;;;;;;;;;5034702;28;20604;-81
2022/12/10 06:56:55;;;;;;;56.30;11.35;;;;;;;;;;5034447;28;20031;-80
2022/12/10 06:59:21;;;;;;;43.50;13.75;;;;;;;;;;5024581;28;20121;-79
2022/12/10 07:01:46;;;;;;;98.10;11.88;;;;;;;;;;5026463;28;20517;-80
2022/12/10 07:04:12;;;;;;;88.63;13.23;;;;;;;;;;5026673;28;20017;-80
2022/12/10 07:06:37;;;;;;;74.05;12.82;;;;;;;;;;5040272;28;20654;-80
2022/12/10 07:09:03;;;;;;;49.88;12.07;;;;;;;;;;5032434;28;20045;-80
2022/12/10 07:11:30;;;;;;;41.83;10.85;;;;;;;;;;5022605;28;20041;-80
2022/12/10 07:13:55;;;;;;;44.28;10.77;;;;;;;;;;5022065;28;20041;-80
2022/12/10 07:16:26;;;;;;;97.60;12.43;;;;;;;;;;5031573;28;20021;-80
2022/12/10 07:18:53;;;;;;;67.05;13.48;;;;;;;;;;5038097;28;20045;-80
2022/12/10 07:21:31;;;;;;;42.40;11.77;;;;;;;;;;5022906;28;20048;-80
2022/12/10 07:24:00;;;;;;;36.53;13.52;;;;;;;;;;5033140;28;20119;-80
2022/12/10 07:26:28;;;;;;;65.50;10.90;;;;;;;;;;5051000;28;20067;-80
2022/12/10 07:28:54;;;;;;;77.35;11.02;;;;;;;;;;5022667;28;20064;-80
2022/12/10 07:31:21;;;;;;;27.38;8.75;;;;;;;;;;5029169;28;20411;-79
2022/12/10 07:33:47;;;;;;;66.50;9.88;;;;;;;;;;5039635;28;20605;-80
2022/12/10 07:36:14;;;;;;;70.32;10.13;;;;;;;;;;5032957;28;20126;-80
2022/12/10 07:38:40;;;;;;;67.63;11.57;;;;;;;;;;5036238;28;20033;-80
2022/12/10 07:41:11;;;;;;;101.10;9.50;;;;;;;;;;5030350;28;20083;-80
2022/12/10 07:43:39;;;;;;;49.58;8.73;;;;;;;;;;5023789;28;20044;-80
2022/12/10 07:46:05;;;;;;;68.35;8.52;;;;;;;;;;5026304;28;20474;-80
2022/12/10 07:48:31;;;;;;;91.30;11.13;;;;;;;;;;5034205;28;20747;-80
2022/12/10 07:50:57;;;;;;;93.30;9.55;;;;;;;;;;5037019;28;20091;-80
2022/12/10 07:53:23;;;;;;;31.75;9.55;;;;;;;;;;5044222;28;20041;-80
2022/12/10 07:55:49;;;;;;;62.92;10.45;;;;;;;;;;5037186;28;20033;-80
2022/12/10 07:58:15;;;;;;;25.30;6.95;;;;;;;;;;5033225;28;20079;-80
2022/12/10 08:00:40;;;;;;;37.38;8.90;;;;;;;;;;5038316;28;20045;-80
2022/12/10 08:03:05;;;;;;;64.13;10.20;;;;;;;;;;5033081;28;20037;-80
2022/12/10 08:05:31;;;;;;;42.35;10.80;;;;;;;;;;5030966;28;20041;-80
2022/12/10 08:07:59;;;;;;;43.85;9.20;;;;;;;;;;5030086;28;20107;-80
2022/12/10 08:10:24;;;;;;;53.38;6.93;;;;;;;;;;5036367;28;20013;-80
2022/12/10 08:12:50;;;;;;;51.30;8.98;;;;;;;;;;5036463;28;20033;-80
2022/12/10 08:15:15;;;;;;;51.53;5.60;;;;;;;;;;5023340;28;20081;-80
2022/12/10 08:17:40;;;;;;;29.17;7.30;;;;;;;;;;5028223;28;20060;-80
2022/12/10 08:20:06;;;;;;;81.20;8.63;;;;;;;;;;5025431;28;20041;-80
2022/12/10 08:22:34;;;;;;;75.22;10.25;;;;;;;;;;5016145;28;20084;-80
2022/12/10 08:24:59;;;;;;;60.95;10.18;;;;;;;;;;5033557;28;20056;-80
2022/12/10 08:27:24;;;;;;;108.93;10.82;;;;;;;;;;5022336;28;20061;-80
2022/12/10 08:29:50;;;;;;;21.85;7.70;;;;;;;;;;5027021;28;20462;-80
2022/12/10 08:32:15;;;;;;;44.85;7.13;;;;;;;;;;5010751;28;20068;-80
2022/12/10 08:34:40;;;;;;;32.10;7.57;;;;;;;;;;5030567;28;20040;-80
2022/12/10 08:37:06;;;;;;;24.77;6.65;;;;;;;;;;5019359;28;20029;-80
2022/12/10 08:39:31;;;;;;;32.70;8.38;;;;;;;;;;5032645;28;20033;-80
2022/12/10 08:41:56;;;;;;;30.80;8.27;;;;;;;;;;5018428;28;20046;-80
2022/12/10 08:44:21;;;;;;;37.95;8.05;;;;;;;;;;5037646;28;20400;-80
2022/12/10 08:46:47;;;;;;;35.55;8.25;;;;;;;;;;5022326;28;20114;-81
2022/12/10 08:49:12;;;;;;;19.85;6.32;;;;;;;;;;5030941;28;20061;-80
2022/12/10 08:51:38;;;;;;;47.85;8.23;;;;;;;;;;5032419;28;20037;-81
2022/12/10 08:54:04;;;;;;;53.83;8.07;;;;;;;;;;5026864;28;20021;-81
2022/12/10 08:56:29;;;;;;;36.97;8.90;;;;;;;;;;5035551;28;20128;-81
2022/12/10 08:58:54;;;;;;;34.58;7.13;;;;;;;;;;5041739;28;20029;-81
2022/12/10 09:01:20;;;;;;;107.57;9.40;;;;;;;;;;5024869;28;20100;-84
2022/12/10 09:03:46;;;;;;;53.50;9.13;;;;;;;;;;5034977;28;20025;-80
2022/12/10 09:06:15;;;;;;;42.55;7.25;;;;;;;;;;5037596;28;20039;-80
2022/12/10 09:08:40;;;;;;;19.50;7.28;;;;;;;;;;5028826;28;20171;-80
2022/12/10 09:11:08;;;;;;;26.05;5.50;;;;;;;;;;5035792;28;20128;-80
2022/12/10 09:13:34;;;;;;;31.58;7.40;;;;;;;;;;5027028;28;20040;-78
2022/12/10 09:15:59;;;;;;;35.42;8.73;;;;;;;;;;5028259;28;20022;-80
2022/12/10 09:18:25;;;;;;;59.97;7.45;;;;;;;;;;5021836;28;20025;-80
2022/12/10 09:20:50;;;;;;;70.57;8.63;;;;;;;;;;5046474;28;20087;-80
2022/12/10 09:23:15;;;;;;;12.88;4.68;;;;;;;;;;5043472;28;20056;-80
2022/12/10 09:25:41;;;;;;;35.83;7.28;;;;;;;;;;5038803;28;20108;-80
2022/12/10 09:28:06;;;;;;;28.15;8.25;;;;;;;;;;5027564;28;20067;-80
2022/12/10 09:30:31;;;;;;;27.17;7.68;;;;;;;;;;5023977;28;20092;-80
2022/12/10 09:32:57;;;;;;;66.95;9.15;;;;;;;;;;5033854;28;20026;-76
2022/12/10 09:35:22;;;;;;;53.88;9.27;;;;;;;;;;5024508;28;20090;-80
2022/12/10 09:37:47;;;;;;;57.38;8.00;;;;;;;;;;5026263;28;20033;-80
2022/12/10 09:40:19;;;;;;;36.63;8.77;;;;;;;;;;5033375;28;20017;-80
2022/12/10 09:42:57;;;;;;;52.47;8.77;;;;;;;;;;5037126;28;20068;-80
2022/12/10 09:46:06;;;;;;;27.20;8.00;;;;;;;;;;5041772;28;20033;-80
2022/12/10 09:48:50;;;;;;;24.63;7.35;;;;;;;;;;4946354;28;20046;-80
2022/12/10 09:51:25;;;;;;;40.28;7.88;;;;;;;;;;4954257;28;20065;-80
2022/12/10 09:53:59;;;;;;;35.53;7.53;;;;;;;;;;4989681;28;20393;-80
2022/12/10 09:56:30;;;;;;;51.33;8.13;;;;;;;;;;5025544;28;20091;-80
2022/12/10 09:58:56;;;;;;;39.63;8.85;;;;;;;;;;5016771;28;20033;-80
2022/12/10 10:01:26;;;;;;;26.65;8.27;;;;;;;;;;5023287;28;20021;-80
2022/12/10 10:03:53;;;;;;;20.30;7.38;;;;;;;;;;5023296;28;20124;-80
2022/12/10 10:06:18;;;;;;;25.05;7.55;;;;;;;;;;5009033;28;20205;-80
2022/12/10 10:08:47;;;;;;;29.45;7.88;;;;;;;;;;5030807;28;20033;-79
2022/12/10 10:11:18;;;;;;;29.75;7.28;;;;;;;;;;5014632;28;20048;-82
2022/12/10 10:13:52;;;;;;;15.65;6.28;;;;;;;;;;5024189;28;20553;-79
2022/12/10 10:16:45;;;;;;;27.00;8.30;;;;;;;;;;5023916;28;20022;-80
2022/12/10 10:19:30;;;;;;;28.67;7.88;;;;;;;;;;5018789;28;20053;-80
2022/12/10 10:21:56;;;;;;;26.52;7.43;;;;;;;;;;5018865;28;20075;-80
2022/12/10 10:24:28;;;;;;;42.63;8.43;;;;;;;;;;5043204;28;20060;-79
2022/12/10 10:26:57;;;;;;;26.45;8.50;;;;;;;;;;5041139;28;20594;-81
2022/12/10 10:29:26;;;;;;;16.90;7.43;;;;;;;;;;5025523;28;20030;-81
2022/12/10 10:32:21;;;;;;;30.02;8.48;;;;;;;;;;5033624;28;20033;-82
2022/12/10 10:34:53;;;;;;;28.30;7.65;;;;;;;;;;5039727;28;20708;-81
2022/12/10 10:37:33;;;;;;;18.00;7.45;;;;;;;;;;5034021;28;20470;-82
2022/12/10 10:39:59;;;;;;;33.78;8.70;;;;;;;;;;5035135;28;20048;-81
2022/12/10 10:42:38;;;;;;;20.52;6.45;;;;;;;;;;5017736;28;20034;-81
2022/12/10 10:45:05;;;;;;;27.70;9.45;;;;;;;;;;5025437;28;20041;-83
2022/12/10 10:47:34;;;;;;;23.67;6.78;;;;;;;;;;5018859;28;20038;-82
2022/12/10 10:49:59;;;;;;;21.60;8.43;;;;;;;;;;5020699;28;20050;-82
2022/12/10 10:52:45;;;;;;;30.20;8.93;;;;;;;;;;5035242;28;20479;-82
2022/12/10 10:55:34;;;;;;;23.95;7.88;;;;;;;;;;5006984;28;20128;-84
2022/12/10 10:58:00;;;;;;;16.80;7.47;;;;;;;;;;5043990;28;20040;-84
2022/12/10 11:00:25;;;;;;;28.50;10.05;;;;;;;;;;5026100;28;20025;-83
2022/12/10 11:02:51;;;;;;;30.42;9.20;;;;;;;;;;5024140;28;20422;-83
2022/12/10 11:05:26;;;;;;;23.70;7.63;;;;;;;;;;5034222;28;20148;-83
2022/12/10 11:08:07;;;;;;;25.50;7.35;;;;;;;;;;5026440;28;20036;-83
2022/12/10 11:10:33;;;;;;;26.23;8.60;;;;;;;;;;5024230;28;20529;-83
2022/12/10 11:13:07;;;;;;;50.38;9.23;;;;;;;;;;5033358;28;20048;-83
2022/12/10 11:15:35;;;;;;;23.83;7.63;;;;;;;;;;5028311;28;20053;-85
2022/12/10 11:18:01;;;;;;;32.72;9.43;;;;;;;;;;5020952;28;20059;-84
